< < Back
Terminal Aerodrome Forecast


Current Version              Previous Versions:   1  2  3  4  5  6  7  8  9  

Terminal Aerodrome Forecast

936
FTUS42 KILM 301700
TAFILM
TAF
KILM 301723Z 3018/3118 32016G26KT P6SM SCT050
     FM310000 32009KT P6SM SKC=

Latest METAR

066
SAUS70 KWBC 302300 RRK
MTRILM
METAR KILM 302253Z AUTO 31011KT 10SM CLR 08/M07 A3014 RMK AO2 SLP205
T00781072


USA.gov is the U.S. government's official web portal to all federal, state and local government web resources and services.